Time;durP1;ratioP1;P1;durP2;ratioP2;P2;SDS_P1;SDS_P2;PMS_P1;PMS_P2;Temp;Humidity;BMP_temperature;BMP_pressure;BME280_temperature;BME280_humidity;BME280_pressure;Samples;Min_cycle;Max_cycle;Signal;HPM_P1;HPM_P2
2022/03/21 00:01:01;;;;;;;13.80;10.30;;;;;;;;;;5063978;28;20197;-67
2022/03/21 00:03:28;;;;;;;12.02;10.32;;;;;;;;;;5064537;28;20197;-67
2022/03/21 00:05:55;;;;;;;12.82;10.35;;;;;;;;;;5064229;28;20248;-67
2022/03/21 00:08:22;;;;;;;12.63;9.90;;;;;;;;;;5064459;28;20193;-67
2022/03/21 00:10:49;;;;;;;14.07;10.60;;;;;;;;;;5064554;28;20197;-67
2022/03/21 00:13:17;;;;;;;12.35;10.65;;;;;;;;;;5064773;28;20197;-67
2022/03/21 00:15:44;;;;;;;13.55;10.52;;;;;;;;;;5064504;28;20427;-67
2022/03/21 00:18:10;;;;;;;12.82;9.70;;;;;;;;;;5063831;28;20536;-67
2022/03/21 00:20:37;;;;;;;15.88;10.52;;;;;;;;;;5064378;28;20197;-67
2022/03/21 00:23:04;;;;;;;14.48;10.23;;;;;;;;;;5064310;28;20197;-67
2022/03/21 00:25:30;;;;;;;13.73;10.80;;;;;;;;;;5064042;28;20575;-67
2022/03/21 00:27:56;;;;;;;13.55;10.35;;;;;;;;;;5063958;28;20193;-67
2022/03/21 00:30:24;;;;;;;13.05;10.80;;;;;;;;;;5064081;28;20235;-67
2022/03/21 00:32:50;;;;;;;11.98;9.63;;;;;;;;;;5063911;28;20235;-67
2022/03/21 00:35:17;;;;;;;13.82;10.50;;;;;;;;;;5064156;28;20243;-67
2022/03/21 00:37:44;;;;;;;15.23;10.98;;;;;;;;;;5063371;28;20243;-67
2022/03/21 00:40:11;;;;;;;14.80;10.55;;;;;;;;;;5063960;28;20201;-67
2022/03/21 00:42:37;;;;;;;13.35;10.90;;;;;;;;;;5063776;28;20259;-67
2022/03/21 00:45:05;;;;;;;13.93;10.63;;;;;;;;;;5063777;28;20197;-67
2022/03/21 00:47:32;;;;;;;11.38;10.07;;;;;;;;;;5063406;28;20205;-67
2022/03/21 00:49:58;;;;;;;12.57;10.70;;;;;;;;;;5063528;28;20202;-66
2022/03/21 00:52:25;;;;;;;12.20;10.90;;;;;;;;;;5063700;28;20440;-67
2022/03/21 00:54:51;;;;;;;14.07;11.07;;;;;;;;;;5063577;28;20251;-67
2022/03/21 00:57:17;;;;;;;12.48;10.77;;;;;;;;;;5063351;28;20197;-67
2022/03/21 00:59:44;;;;;;;13.30;10.45;;;;;;;;;;5063469;28;20248;-67
2022/03/21 01:02:12;;;;;;;12.85;10.50;;;;;;;;;;5063324;28;20201;-67
2022/03/21 01:04:39;;;;;;;13.18;10.82;;;;;;;;;;5063198;28;20234;-67
2022/03/21 01:07:06;;;;;;;14.50;10.10;;;;;;;;;;5063119;28;20197;-67
2022/03/21 01:09:33;;;;;;;11.70;9.73;;;;;;;;;;5063334;28;20197;-67
2022/03/21 01:12:00;;;;;;;12.60;9.18;;;;;;;;;;5062589;28;20225;-67
2022/03/21 01:14:26;;;;;;;12.73;10.30;;;;;;;;;;5063148;28;20201;-67
2022/03/21 01:16:55;;;;;;;12.23;10.30;;;;;;;;;;5063022;28;20243;-67
2022/03/21 01:19:21;;;;;;;15.85;10.85;;;;;;;;;;5063178;28;20471;-67
2022/03/21 01:21:49;;;;;;;11.93;9.68;;;;;;;;;;5063158;28;20243;-67
2022/03/21 01:24:15;;;;;;;12.23;9.43;;;;;;;;;;5063113;28;20204;-67
2022/03/21 01:26:41;;;;;;;11.10;9.75;;;;;;;;;;5062843;28;20428;-66
2022/03/21 01:29:07;;;;;;;13.68;10.40;;;;;;;;;;5062896;28;20497;-66
2022/03/21 01:31:34;;;;;;;13.82;9.48;;;;;;;;;;5063183;28;20209;-66
2022/03/21 01:34:00;;;;;;;16.17;10.85;;;;;;;;;;5063004;28;20219;-66
2022/03/21 01:36:26;;;;;;;12.40;10.88;;;;;;;;;;5062532;28;20209;-66
2022/03/21 01:38:54;;;;;;;13.27;10.23;;;;;;;;;;5062693;28;20221;-66
2022/03/21 01:41:20;;;;;;;11.48;9.68;;;;;;;;;;5062613;28;20200;-66
2022/03/21 01:43:56;;;;;;;11.93;9.55;;;;;;;;;;5062606;28;20204;-66
2022/03/21 01:46:22;;;;;;;12.30;9.70;;;;;;;;;;5062751;28;20201;-66
2022/03/21 01:48:49;;;;;;;13.85;10.30;;;;;;;;;;5062690;28;20209;-66
2022/03/21 01:51:15;;;;;;;14.23;9.55;;;;;;;;;;5062598;28;20197;-66
2022/03/21 01:56:27;;;;;;;10.75;9.32;;;;;;;;;;5062723;28;20224;-66
2022/03/21 01:58:53;;;;;;;12.50;9.73;;;;;;;;;;5062579;28;20254;-66
2022/03/21 02:01:19;;;;;;;12.85;10.00;;;;;;;;;;5062280;28;20197;-66
2022/03/21 02:03:46;;;;;;;11.68;9.05;;;;;;;;;;5062431;28;20196;-66
2022/03/21 02:06:12;;;;;;;11.32;9.82;;;;;;;;;;5061945;28;20217;-66
2022/03/21 02:08:38;;;;;;;14.35;10.40;;;;;;;;;;5062741;28;20534;-66
2022/03/21 02:11:05;;;;;;;13.52;10.02;;;;;;;;;;5062427;28;20197;-66
2022/03/21 02:13:35;;;;;;;13.18;10.90;;;;;;;;;;5062367;28;20258;-66
2022/03/21 02:16:01;;;;;;;12.45;10.50;;;;;;;;;;5062223;28;20235;-67
2022/03/21 02:18:28;;;;;;;12.77;9.80;;;;;;;;;;5062077;28;20275;-67
2022/03/21 02:20:55;;;;;;;13.88;9.93;;;;;;;;;;5062287;28;20259;-66
2022/03/21 02:23:27;;;;;;;12.30;10.45;;;;;;;;;;5061777;28;20251;-66
2022/03/21 02:25:55;;;;;;;14.27;10.90;;;;;;;;;;5062102;28;20219;-66
2022/03/21 02:28:22;;;;;;;14.07;10.40;;;;;;;;;;5062081;28;20197;-66
2022/03/21 02:30:49;;;;;;;12.40;10.35;;;;;;;;;;5062023;28;20201;-66
2022/03/21 02:33:16;;;;;;;12.05;10.18;;;;;;;;;;5062423;28;20192;-66
2022/03/21 02:35:44;;;;;;;13.98;10.15;;;;;;;;;;5061210;28;20201;-67
2022/03/21 02:38:11;;;;;;;13.30;10.25;;;;;;;;;;5061808;28;20266;-67
2022/03/21 02:40:37;;;;;;;10.73;9.63;;;;;;;;;;5061902;28;20214;-66
2022/03/21 02:43:05;;;;;;;13.68;10.02;;;;;;;;;;5062078;28;20197;-66
2022/03/21 02:45:31;;;;;;;11.35;10.00;;;;;;;;;;5061961;28;20212;-66
2022/03/21 02:47:57;;;;;;;12.52;10.63;;;;;;;;;;5061688;28;20201;-67
2022/03/21 02:50:30;;;;;;;13.57;9.65;;;;;;;;;;5061979;28;20193;-67
2022/03/21 02:52:56;;;;;;;10.73;9.35;;;;;;;;;;5062015;28;20500;-66
2022/03/21 02:55:23;;;;;;;15.00;10.20;;;;;;;;;;5061945;28;20371;-66
2022/03/21 02:57:49;;;;;;;12.52;10.07;;;;;;;;;;5061349;28;20247;-66
2022/03/21 03:00:17;;;;;;;10.82;9.30;;;;;;;;;;5062113;28;20478;-66
2022/03/21 03:02:43;;;;;;;11.65;9.65;;;;;;;;;;5061826;28;20197;-66
2022/03/21 03:05:10;;;;;;;12.35;9.70;;;;;;;;;;5061909;28;20271;-66
2022/03/21 03:07:36;;;;;;;11.73;9.88;;;;;;;;;;5061437;28;20201;-66
2022/03/21 03:10:02;;;;;;;13.98;10.23;;;;;;;;;;5061886;28;20255;-66
2022/03/21 03:12:28;;;;;;;11.57;10.07;;;;;;;;;;5061508;28;20197;-66
2022/03/21 03:14:55;;;;;;;11.77;9.80;;;;;;;;;;5061926;28;20197;-66
2022/03/21 03:17:22;;;;;;;13.80;10.40;;;;;;;;;;5061589;28;20220;-66
2022/03/21 03:19:48;;;;;;;11.07;9.45;;;;;;;;;;5061679;28;20471;-66
2022/03/21 03:22:16;;;;;;;11.07;9.75;;;;;;;;;;5062056;28;20481;-66
2022/03/21 03:24:42;;;;;;;15.35;10.50;;;;;;;;;;5061608;28;20243;-66
2022/03/21 03:27:08;;;;;;;12.75;10.07;;;;;;;;;;5061251;28;20562;-66
2022/03/21 03:29:35;;;;;;;11.35;9.45;;;;;;;;;;5061646;28;20240;-66
2022/03/21 03:32:03;;;;;;;12.20;10.45;;;;;;;;;;5061677;28;20244;-66
2022/03/21 03:34:31;;;;;;;13.60;10.55;;;;;;;;;;5061647;28;20204;-66
2022/03/21 03:36:57;;;;;;;12.98;9.70;;;;;;;;;;5064787;28;20197;-66
2022/03/21 03:39:23;;;;;;;13.00;10.00;;;;;;;;;;5064970;28;20323;-66
2022/03/21 03:41:50;;;;;;;13.98;11.00;;;;;;;;;;5064928;28;20201;-66
2022/03/21 03:44:17;;;;;;;12.55;10.50;;;;;;;;;;5065041;28;20208;-67
2022/03/21 03:46:44;;;;;;;12.20;10.48;;;;;;;;;;5064834;28;20265;-66
2022/03/21 03:49:10;;;;;;;11.07;9.32;;;;;;;;;;5064932;28;20536;-66
2022/03/21 03:51:38;;;;;;;12.35;10.43;;;;;;;;;;5064911;28;20236;-66
2022/03/21 03:54:04;;;;;;;17.10;11.43;;;;;;;;;;5064647;28;20382;-66
2022/03/21 03:56:30;;;;;;;14.65;10.45;;;;;;;;;;5064693;28;20197;-66
2022/03/21 03:58:56;;;;;;;11.23;9.52;;;;;;;;;;5064678;28;20221;-66
2022/03/21 04:01:23;;;;;;;13.05;10.35;;;;;;;;;;5064758;28;20197;-66
2022/03/21 04:03:49;;;;;;;13.45;10.80;;;;;;;;;;5064628;28;20197;-66
2022/03/21 04:06:16;;;;;;;14.82;10.95;;;;;;;;;;5064308;28;20217;-66
2022/03/21 04:08:44;;;;;;;14.45;11.20;;;;;;;;;;5064377;28;20496;-66
2022/03/21 04:11:10;;;;;;;15.70;11.18;;;;;;;;;;5064621;28;20201;-66
2022/03/21 04:13:36;;;;;;;17.00;11.73;;;;;;;;;;5064539;28;20311;-66
2022/03/21 04:16:03;;;;;;;16.73;11.77;;;;;;;;;;5064386;28;20247;-66
2022/03/21 04:18:29;;;;;;;14.15;11.18;;;;;;;;;;5064286;28;20239;-66
2022/03/21 04:20:56;;;;;;;14.60;11.73;;;;;;;;;;5064327;28;20601;-66
2022/03/21 04:23:22;;;;;;;14.05;11.25;;;;;;;;;;5064082;28;20202;-66
2022/03/21 04:25:50;;;;;;;15.98;11.35;;;;;;;;;;5063997;28;20287;-66
2022/03/21 04:28:17;;;;;;;14.57;10.90;;;;;;;;;;5064089;28;20268;-66
2022/03/21 04:30:44;;;;;;;14.27;10.50;;;;;;;;;;5064180;28;20514;-66
2022/03/21 04:33:12;;;;;;;11.70;9.82;;;;;;;;;;5064552;28;20197;-66
2022/03/21 04:35:38;;;;;;;11.23;9.93;;;;;;;;;;5063912;28;20197;-66
2022/03/21 04:38:12;;;;;;;15.93;10.63;;;;;;;;;;5063981;28;20205;-67
2022/03/21 04:40:38;;;;;;;13.27;10.32;;;;;;;;;;5063807;28;20268;-66
2022/03/21 04:43:06;;;;;;;12.07;9.68;;;;;;;;;;5063955;28;20427;-67
2022/03/21 04:45:32;;;;;;;15.93;10.00;;;;;;;;;;5063919;28;20368;-68
2022/03/21 04:47:58;;;;;;;14.27;9.85;;;;;;;;;;5063523;28;20209;-66
2022/03/21 04:50:25;;;;;;;14.05;10.20;;;;;;;;;;5063654;28;20189;-66
2022/03/21 04:52:51;;;;;;;14.32;11.70;;;;;;;;;;5063834;28;20251;-67
2022/03/21 04:55:17;;;;;;;16.63;11.05;;;;;;;;;;5063922;28;20201;-66
2022/03/21 04:57:43;;;;;;;16.15;11.23;;;;;;;;;;5063345;28;20205;-66
2022/03/21 05:00:13;;;;;;;15.32;11.27;;;;;;;;;;5063526;28;20213;-66
2022/03/21 05:02:39;;;;;;;15.50;11.63;;;;;;;;;;5063404;28;20501;-66
2022/03/21 05:05:06;;;;;;;17.77;12.57;;;;;;;;;;5063240;28;20556;-66
2022/03/21 05:07:32;;;;;;;18.20;12.45;;;;;;;;;;5063352;28;20388;-66
2022/03/21 05:09:58;;;;;;;18.42;12.95;;;;;;;;;;5063552;28;20193;-66
2022/03/21 05:12:24;;;;;;;18.05;13.13;;;;;;;;;;5063282;28;20235;-66
2022/03/21 05:14:50;;;;;;;17.08;12.40;;;;;;;;;;5063277;28;20516;-66
2022/03/21 05:17:18;;;;;;;18.25;12.13;;;;;;;;;;5062816;28;20243;-67
2022/03/21 05:19:44;;;;;;;18.35;11.82;;;;;;;;;;5063059;28;20228;-67
2022/03/21 05:22:11;;;;;;;15.23;11.68;;;;;;;;;;5063282;28;20523;-67
2022/03/21 05:35:52;;;;;;;17.27;11.45;;;;;;;;;;5061998;28;20235;-67
2022/03/21 05:35:54;;;;;;;14.43;11.65;;;;;;;;;;5062892;28;20263;-67
2022/03/21 05:38:21;;;;;;;16.20;11.30;;;;;;;;;;5062671;28;20193;-67
2022/03/21 05:40:47;;;;;;;17.23;11.73;;;;;;;;;;5062665;28;20221;-67
2022/03/21 05:43:13;;;;;;;14.18;11.23;;;;;;;;;;5062919;28;20197;-67
2022/03/21 05:45:41;;;;;;;16.65;11.50;;;;;;;;;;5062749;28;20275;-69
2022/03/21 05:50:52;;;;;;;16.60;11.68;;;;;;;;;;5062572;28;20272;-67
2022/03/21 05:53:19;;;;;;;14.70;11.07;;;;;;;;;;5062674;28;20234;-67
2022/03/21 05:55:45;;;;;;;16.75;12.68;;;;;;;;;;5062623;28;20197;-67
2022/03/21 05:58:12;;;;;;;16.00;11.25;;;;;;;;;;5061804;28;20244;-67
2022/03/21 06:00:38;;;;;;;17.30;12.15;;;;;;;;;;5062440;28;20216;-67
2022/03/21 06:03:07;;;;;;;18.25;12.25;;;;;;;;;;5062407;28;20384;-67
2022/03/21 06:05:35;;;;;;;15.95;12.10;;;;;;;;;;5062668;28;20263;-68
2022/03/21 06:08:01;;;;;;;15.20;11.75;;;;;;;;;;5062385;28;20197;-67
2022/03/21 06:10:27;;;;;;;15.70;11.32;;;;;;;;;;5062395;28;20193;-69
2022/03/21 06:12:55;;;;;;;14.77;11.48;;;;;;;;;;5062395;28;20205;-67
2022/03/21 06:15:22;;;;;;;16.02;11.60;;;;;;;;;;5062239;28;20242;-69
2022/03/21 06:17:48;;;;;;;14.63;11.15;;;;;;;;;;5061857;28;20204;-69
2022/03/21 06:20:16;;;;;;;14.32;11.48;;;;;;;;;;5062290;28;20220;-69
2022/03/21 06:22:44;;;;;;;16.48;12.30;;;;;;;;;;5062268;28;20204;-69
2022/03/21 06:25:11;;;;;;;16.73;12.32;;;;;;;;;;5062089;28;20209;-69
2022/03/21 06:27:38;;;;;;;16.98;11.43;;;;;;;;;;5062048;28;20197;-69
2022/03/21 06:30:05;;;;;;;29.02;17.45;;;;;;;;;;5062408;28;20228;-69
2022/03/21 06:32:31;;;;;;;19.50;13.60;;;;;;;;;;5061989;28;20201;-69
2022/03/21 06:34:57;;;;;;;16.75;12.15;;;;;;;;;;5061886;28;20243;-69
2022/03/21 06:37:23;;;;;;;15.65;11.88;;;;;;;;;;5062417;28;20406;-70
2022/03/21 06:39:51;;;;;;;16.45;12.30;;;;;;;;;;5062505;28;20217;-69
2022/03/21 06:42:21;;;;;;;16.75;12.18;;;;;;;;;;5062543;28;20197;-69
2022/03/21 06:44:47;;;;;;;15.77;12.20;;;;;;;;;;5061860;28;20243;-69
2022/03/21 06:47:13;;;;;;;15.40;11.52;;;;;;;;;;5061616;28;20201;-69
2022/03/21 06:49:40;;;;;;;17.85;11.27;;;;;;;;;;5061860;28;20197;-69
2022/03/21 06:52:08;;;;;;;17.05;12.18;;;;;;;;;;5062012;28;20193;-69
2022/03/21 06:54:34;;;;;;;19.08;11.98;;;;;;;;;;5061951;28;20243;-69
2022/03/21 06:57:02;;;;;;;15.65;11.95;;;;;;;;;;5061634;28;20478;-68
2022/03/21 06:59:29;;;;;;;15.60;10.90;;;;;;;;;;5061644;28;20209;-68
2022/03/21 07:01:55;;;;;;;15.20;10.73;;;;;;;;;;5061956;28;20197;-68
2022/03/21 07:04:22;;;;;;;16.40;10.27;;;;;;;;;;5061888;28;20197;-68
2022/03/21 07:06:49;;;;;;;14.27;11.32;;;;;;;;;;5061821;28;20224;-68
2022/03/21 07:09:15;;;;;;;19.42;11.90;;;;;;;;;;5061666;28;20197;-68
2022/03/21 07:11:41;;;;;;;18.48;11.32;;;;;;;;;;5065352;28;20263;-68
2022/03/21 07:14:09;;;;;;;20.05;12.82;;;;;;;;;;5065371;28;20420;-68
2022/03/21 07:16:35;;;;;;;21.10;11.60;;;;;;;;;;5065524;28;20197;-68
2022/03/21 07:19:02;;;;;;;18.83;11.45;;;;;;;;;;5065521;28;20196;-68
2022/03/21 07:21:28;;;;;;;20.58;12.10;;;;;;;;;;5065475;28;20267;-68
2022/03/21 07:23:54;;;;;;;18.05;12.98;;;;;;;;;;5065310;28;20250;-68
2022/03/21 07:26:21;;;;;;;15.48;11.55;;;;;;;;;;5065042;28;20223;-69
2022/03/21 07:28:47;;;;;;;18.88;12.85;;;;;;;;;;5065019;28;20197;-69
2022/03/21 07:31:14;;;;;;;17.95;11.98;;;;;;;;;;5065498;28;20497;-69
2022/03/21 07:33:41;;;;;;;19.90;11.50;;;;;;;;;;5065341;28;20567;-68
2022/03/21 07:36:08;;;;;;;15.90;11.63;;;;;;;;;;5064845;28;20497;-69
2022/03/21 07:38:35;;;;;;;21.05;11.43;;;;;;;;;;5065107;28;20219;-69
2022/03/21 07:41:01;;;;;;;16.60;11.15;;;;;;;;;;5064909;28;20252;-68
2022/03/21 07:43:28;;;;;;;16.77;12.05;;;;;;;;;;5064874;28;20213;-68
2022/03/21 07:48:42;;;;;;;20.23;11.48;;;;;;;;;;5047144;28;20196;-69
2022/03/21 07:51:08;;;;;;;14.57;11.18;;;;;;;;;;5064925;28;20221;-69
2022/03/21 07:53:34;;;;;;;14.70;10.70;;;;;;;;;;5064619;28;20201;-69
2022/03/21 07:56:00;;;;;;;16.23;11.05;;;;;;;;;;5064638;28;20497;-68
2022/03/21 07:58:27;;;;;;;16.67;11.18;;;;;;;;;;5064624;28;20229;-68
2022/03/21 08:00:53;;;;;;;18.17;11.30;;;;;;;;;;5064784;28;20255;-57
2022/03/21 08:03:19;;;;;;;17.17;12.32;;;;;;;;;;5060860;28;20197;-57
2022/03/21 08:05:47;;;;;;;19.05;12.40;;;;;;;;;;5064435;28;20284;-57
2022/03/21 08:08:14;;;;;;;18.48;11.00;;;;;;;;;;5063700;28;20492;-57
2022/03/21 08:10:41;;;;;;;16.00;11.15;;;;;;;;;;5064327;28;20396;-57
2022/03/21 08:13:08;;;;;;;19.23;11.60;;;;;;;;;;5064595;28;20285;-57
2022/03/21 08:15:35;;;;;;;16.33;11.65;;;;;;;;;;5064223;28;20228;-57
2022/03/21 08:18:03;;;;;;;19.67;11.27;;;;;;;;;;5063937;28;20201;-57
2022/03/21 08:20:33;;;;;;;15.82;11.82;;;;;;;;;;5063450;28;20209;-57
2022/03/21 08:23:05;;;;;;;16.05;11.55;;;;;;;;;;5061576;28;20185;-58
2022/03/21 08:25:32;;;;;;;18.13;12.55;;;;;;;;;;5063558;28;20209;-59
2022/03/21 08:27:58;;;;;;;18.88;11.77;;;;;;;;;;5063682;28;20492;-60
2022/03/21 08:30:24;;;;;;;16.13;11.23;;;;;;;;;;5064413;28;20197;-59
2022/03/21 08:32:51;;;;;;;17.67;11.82;;;;;;;;;;5064079;28;20196;-57
2022/03/21 08:35:18;;;;;;;15.85;10.05;;;;;;;;;;5064325;28;20243;-56
2022/03/21 08:37:44;;;;;;;20.30;11.23;;;;;;;;;;5063914;28;20205;-57
2022/03/21 08:40:13;;;;;;;14.63;10.18;;;;;;;;;;5064096;28;20201;-57
2022/03/21 08:42:39;;;;;;;14.20;10.95;;;;;;;;;;5063882;28;20427;-56
2022/03/21 08:45:05;;;;;;;17.02;11.35;;;;;;;;;;5063734;28;20197;-56
2022/03/21 08:47:32;;;;;;;14.50;10.93;;;;;;;;;;5063534;28;20262;-57
2022/03/21 08:49:58;;;;;;;17.42;11.80;;;;;;;;;;5063460;28;20504;-58
2022/03/21 08:52:25;;;;;;;13.13;11.20;;;;;;;;;;5063756;28;20496;-58
2022/03/21 08:54:51;;;;;;;16.50;12.68;;;;;;;;;;5063405;28;20197;-57
2022/03/21 08:57:19;;;;;;;15.77;12.38;;;;;;;;;;5063527;28;20197;-57
2022/03/21 08:59:47;;;;;;;15.10;11.60;;;;;;;;;;5063580;28;20284;-57
2022/03/21 09:02:14;;;;;;;17.90;12.25;;;;;;;;;;5063231;28;20217;-57
2022/03/21 09:04:41;;;;;;;15.57;10.98;;;;;;;;;;5062637;28;20520;-57
2022/03/21 09:07:08;;;;;;;17.67;11.85;;;;;;;;;;5062602;28;20197;-57
2022/03/21 09:09:34;;;;;;;14.10;10.80;;;;;;;;;;5062842;28;20236;-58
2022/03/21 09:12:00;;;;;;;16.05;11.35;;;;;;;;;;5062785;28;20198;-57
2022/03/21 09:14:28;;;;;;;15.20;11.85;;;;;;;;;;5059987;28;20440;-58
2022/03/21 09:16:56;;;;;;;14.20;11.35;;;;;;;;;;5060412;28;20564;-59
2022/03/21 09:19:23;;;;;;;22.50;12.65;;;;;;;;;;5069288;28;20275;-59
2022/03/21 09:21:58;;;;;;;16.73;11.82;;;;;;;;;;5073142;28;20220;-58
2022/03/21 09:24:24;;;;;;;16.00;11.88;;;;;;;;;;5072320;28;20395;-59
2022/03/21 09:26:50;;;;;;;19.35;12.50;;;;;;;;;;5076318;28;20245;-59
2022/03/21 09:29:17;;;;;;;14.07;11.90;;;;;;;;;;5076416;28;20239;-57
2022/03/21 09:31:44;;;;;;;18.70;11.75;;;;;;;;;;5076935;28;20370;-56
2022/03/21 09:34:13;;;;;;;18.70;12.15;;;;;;;;;;5076188;28;20570;-57
2022/03/21 09:36:39;;;;;;;16.42;11.93;;;;;;;;;;5059239;28;20213;-57
2022/03/21 09:39:07;;;;;;;16.30;12.27;;;;;;;;;;5056591;28;20213;-58
2022/03/21 09:41:33;;;;;;;23.20;12.02;;;;;;;;;;5056715;28;20225;-57
2022/03/21 09:44:01;;;;;;;18.33;12.15;;;;;;;;;;5057019;28;20218;-58
2022/03/21 09:46:27;;;;;;;18.40;11.95;;;;;;;;;;5056412;28;20255;-56
2022/03/21 09:48:55;;;;;;;16.67;12.68;;;;;;;;;;5057405;28;20213;-58
2022/03/21 09:51:23;;;;;;;40.40;24.42;;;;;;;;;;5057169;28;20494;-58
2022/03/21 09:53:49;;;;;;;16.70;12.05;;;;;;;;;;5057079;28;20214;-57
2022/03/21 09:56:16;;;;;;;17.20;12.98;;;;;;;;;;5056363;28;20209;-56
2022/03/21 09:58:43;;;;;;;19.33;12.55;;;;;;;;;;5056943;28;20353;-56
2022/03/21 10:01:10;;;;;;;14.98;12.40;;;;;;;;;;5056982;28;20239;-57
2022/03/21 10:03:37;;;;;;;19.25;12.65;;;;;;;;;;5056911;28;20303;-56
2022/03/21 10:06:25;;;;;;;18.35;13.45;;;;;;;;;;5056295;28;20662;-55
2022/03/21 10:09:03;;;;;;;19.73;12.88;;;;;;;;;;5056932;28;20213;-55
2022/03/21 10:11:29;;;;;;;20.67;12.80;;;;;;;;;;5056941;28;20201;-56
2022/03/21 10:13:56;;;;;;;27.00;12.75;;;;;;;;;;5056888;28;20205;-57
2022/03/21 10:16:22;;;;;;;28.08;13.05;;;;;;;;;;5056415;28;20213;-57
2022/03/21 10:18:58;;;;;;;18.42;13.23;;;;;;;;;;5056612;28;20449;-57
2022/03/21 10:21:26;;;;;;;16.88;12.75;;;;;;;;;;5056747;28;20310;-57
2022/03/21 10:23:58;;;;;;;20.35;14.18;;;;;;;;;;5056530;28;20594;-56
2022/03/21 10:26:26;;;;;;;27.98;18.52;;;;;;;;;;5056135;28;20562;-55
2022/03/21 10:28:53;;;;;;;20.27;15.02;;;;;;;;;;5056594;28;20209;-56
2022/03/21 10:31:33;;;;;;;20.10;14.10;;;;;;;;;;5056502;28;20205;-57
2022/03/21 10:33:59;;;;;;;21.88;14.25;;;;;;;;;;5056632;28;20255;-56
2022/03/21 10:36:27;;;;;;;16.98;13.82;;;;;;;;;;5055958;28;20244;-57
2022/03/21 10:39:06;;;;;;;20.08;14.00;;;;;;;;;;5056595;28;20213;-57
2022/03/21 10:41:33;;;;;;;18.33;13.10;;;;;;;;;;5056690;28;20228;-57
2022/03/21 10:44:00;;;;;;;16.00;13.38;;;;;;;;;;5057650;28;20517;-56
2022/03/21 10:46:26;;;;;;;25.13;16.05;;;;;;;;;;5060256;28;20438;-57
2022/03/21 10:49:01;;;;;;;18.73;13.68;;;;;;;;;;5060580;28;20259;-56
2022/03/21 10:51:46;;;;;;;18.63;13.60;;;;;;;;;;5060662;28;20205;-57
2022/03/21 10:54:20;;;;;;;21.38;14.52;;;;;;;;;;5060425;28;20262;-58
2022/03/21 10:56:46;;;;;;;18.55;13.77;;;;;;;;;;5059968;28;20212;-58
2022/03/21 10:59:16;;;;;;;20.42;13.82;;;;;;;;;;5060213;28;20262;-58
2022/03/21 11:01:43;;;;;;;17.55;13.48;;;;;;;;;;5060763;28;20275;-57
2022/03/21 11:04:09;;;;;;;20.95;14.38;;;;;;;;;;5060689;28;20550;-57
2022/03/21 11:06:37;;;;;;;20.23;14.10;;;;;;;;;;5059941;28;20476;-56
2022/03/21 11:09:03;;;;;;;25.65;14.45;;;;;;;;;;5060302;28;20209;-60
2022/03/21 11:11:30;;;;;;;19.10;14.38;;;;;;;;;;5060000;28;20189;-58
2022/03/21 11:13:56;;;;;;;19.65;13.90;;;;;;;;;;5060133;28;20220;-65
2022/03/21 11:16:22;;;;;;;27.13;15.98;;;;;;;;;;5059724;28;20521;-56
2022/03/21 11:18:51;;;;;;;23.85;14.07;;;;;;;;;;5060531;28;20216;-60
2022/03/21 11:21:19;;;;;;;17.60;14.27;;;;;;;;;;5059970;28;20229;-62
2022/03/21 11:23:47;;;;;;;25.50;14.65;;;;;;;;;;5059904;28;20389;-59
2022/03/21 11:26:17;;;;;;;24.33;16.00;;;;;;;;;;5059386;28;20232;-57
2022/03/21 11:28:53;;;;;;;19.33;14.57;;;;;;;;;;5059513;28;20539;-59
2022/03/21 11:31:43;;;;;;;20.95;14.68;;;;;;;;;;5059975;28;20262;-59
2022/03/21 11:34:15;;;;;;;20.38;14.75;;;;;;;;;;5060120;28;20213;-60
2022/03/21 11:36:50;;;;;;;22.33;15.23;;;;;;;;;;5061884;28;20204;-58
2022/03/21 11:39:17;;;;;;;19.15;14.02;;;;;;;;;;5062515;28;20208;-58
2022/03/21 11:41:56;;;;;;;21.67;14.88;;;;;;;;;;5062430;28;20483;-58
2022/03/21 11:44:22;;;;;;;19.80;14.82;;;;;;;;;;5062404;28;20209;-60
2022/03/21 11:46:48;;;;;;;22.42;14.15;;;;;;;;;;5061997;28;20220;-57
2022/03/21 11:49:33;;;;;;;18.13;14.32;;;;;;;;;;5062318;28;20243;-57
2022/03/21 11:51:59;;;;;;;21.33;14.70;;;;;;;;;;5062335;28;20201;-58
2022/03/21 11:54:28;;;;;;;20.08;14.73;;;;;;;;;;5062394;28;20212;-59
2022/03/21 11:56:56;;;;;;;20.02;14.45;;;;;;;;;;5061293;28;20280;-58
2022/03/21 11:59:40;;;;;;;22.27;14.48;;;;;;;;;;5062323;28;20216;-57
2022/03/21 12:02:22;;;;;;;19.15;13.98;;;;;;;;;;5062119;28;20539;-56
2022/03/21 12:04:57;;;;;;;17.80;13.88;;;;;;;;;;5058953;28;20251;-57
2022/03/21 12:07:31;;;;;;;17.90;14.77;;;;;;;;;;5058499;28;20458;-58
2022/03/21 12:09:59;;;;;;;19.08;14.00;;;;;;;;;;5058933;28;20204;-59
2022/03/21 12:12:48;;;;;;;22.13;14.23;;;;;;;;;;5059025;28;20381;-56
2022/03/21 12:15:15;;;;;;;22.15;14.13;;;;;;;;;;5058824;28;20209;-57
2022/03/21 12:17:47;;;;;;;23.20;13.57;;;;;;;;;;5057938;28;20213;-58
2022/03/21 12:20:14;;;;;;;18.50;14.35;;;;;;;;;;5058742;28;20209;-58
2022/03/21 12:22:43;;;;;;;23.38;13.98;;;;;;;;;;5058819;28;20431;-57
2022/03/21 12:25:13;;;;;;;18.85;12.85;;;;;;;;;;5063856;28;20211;-57
2022/03/21 12:27:40;;;;;;;17.98;14.00;;;;;;;;;;5064072;28;20272;-58
2022/03/21 12:30:21;;;;;;;19.92;14.32;;;;;;;;;;5064139;28;20200;-58
2022/03/21 12:32:48;;;;;;;15.10;13.18;;;;;;;;;;5063290;28;20197;-58
2022/03/21 12:35:49;;;;;;;19.50;13.20;;;;;;;;;;5062955;28;20224;-57
2022/03/21 12:38:16;;;;;;;18.48;13.65;;;;;;;;;;5063665;28;20197;-57
2022/03/21 12:40:52;;;;;;;18.30;14.40;;;;;;;;;;5063935;28;20197;-58
2022/03/21 12:43:19;;;;;;;22.23;14.05;;;;;;;;;;5063760;28;20216;-57
2022/03/21 12:45:46;;;;;;;20.30;14.05;;;;;;;;;;5064082;28;20243;-58
2022/03/21 12:48:14;;;;;;;20.10;15.57;;;;;;;;;;5063464;28;20197;-58
2022/03/21 12:50:40;;;;;;;19.30;13.35;;;;;;;;;;5063874;28;20223;-59
2022/03/21 12:53:08;;;;;;;23.88;13.75;;;;;;;;;;5063639;28;20197;-58
2022/03/21 12:55:35;;;;;;;19.13;14.27;;;;;;;;;;5063713;28;20280;-57
2022/03/21 12:58:04;;;;;;;27.42;13.65;;;;;;;;;;5063153;28;20216;-57
2022/03/21 13:00:34;;;;;;;20.67;13.65;;;;;;;;;;5063587;28;20220;-57
2022/03/21 13:03:04;;;;;;;20.33;13.32;;;;;;;;;;5063552;28;20220;-57
2022/03/21 13:11:20;;;;;;;19.23;14.05;;;;;;;;;;5063276;28;20234;-57
2022/03/21 13:13:52;;;;;;;24.08;16.35;;;;;;;;;;5063555;28;20417;-58
2022/03/21 13:16:19;;;;;;;23.70;13.85;;;;;;;;;;5062931;28;20197;-58
2022/03/21 13:18:45;;;;;;;20.35;12.77;;;;;;;;;;5063152;28;20201;-58
2022/03/21 13:21:11;;;;;;;19.58;13.75;;;;;;;;;;5063359;28;20243;-57
2022/03/21 13:23:38;;;;;;;20.65;13.07;;;;;;;;;;5063051;28;20225;-58
2022/03/21 13:26:07;;;;;;;18.38;12.52;;;;;;;;;;5062960;28;20201;-58
2022/03/21 13:28:34;;;;;;;15.38;12.65;;;;;;;;;;5063054;28;20391;-59
2022/03/21 13:31:02;;;;;;;24.38;13.77;;;;;;;;;;5063066;28;20205;-58
2022/03/21 13:33:29;;;;;;;24.27;13.27;;;;;;;;;;5063143;28;20193;-59
2022/03/21 13:35:58;;;;;;;25.17;13.50;;;;;;;;;;5062630;28;20224;-58
2022/03/21 13:38:25;;;;;;;15.70;12.23;;;;;;;;;;5062939;28;20195;-58
2022/03/21 13:40:51;;;;;;;15.57;12.70;;;;;;;;;;5062776;28;20200;-58
2022/03/21 13:43:18;;;;;;;18.90;12.70;;;;;;;;;;5062678;28;20225;-59
2022/03/21 13:45:45;;;;;;;30.10;14.13;;;;;;;;;;5062632;28;20204;-59
2022/03/21 13:48:30;;;;;;;32.58;13.20;;;;;;;;;;5062321;28;20251;-59
2022/03/21 13:50:59;;;;;;;22.90;13.18;;;;;;;;;;5062754;28;20197;-59
2022/03/21 13:53:26;;;;;;;38.92;14.68;;;;;;;;;;5062582;28;20197;-59
2022/03/21 13:55:52;;;;;;;36.50;14.27;;;;;;;;;;5062484;28;20303;-59
2022/03/21 13:58:24;;;;;;;21.20;12.82;;;;;;;;;;5062165;28;20219;-59
2022/03/21 14:00:52;;;;;;;20.02;11.43;;;;;;;;;;5062587;28;20197;-58
2022/03/21 14:03:32;;;;;;;19.77;9.30;;;;;;;;;;5062495;28;20292;-58
2022/03/21 14:05:58;;;;;;;23.98;9.38;;;;;;;;;;5062250;28;20217;-58
2022/03/21 14:08:25;;;;;;;21.08;9.30;;;;;;;;;;5062254;28;20200;-59
2022/03/21 14:10:51;;;;;;;11.20;7.55;;;;;;;;;;5062200;28;20205;-57
2022/03/21 14:13:20;;;;;;;15.20;7.53;;;;;;;;;;5062460;28;20497;-58
2022/03/21 14:15:46;;;;;;;16.42;8.20;;;;;;;;;;5062387;28;20208;-58
2022/03/21 14:18:13;;;;;;;16.10;7.80;;;;;;;;;;5061943;28;20205;-59
2022/03/21 14:20:40;;;;;;;16.35;8.20;;;;;;;;;;5061767;28;20440;-58
2022/03/21 14:23:07;;;;;;;14.00;7.65;;;;;;;;;;5061994;28;20213;-59
2022/03/21 14:28:17;;;;;;;15.60;7.70;;;;;;;;;;5061947;28;20215;-58
2022/03/21 14:30:44;;;;;;;12.10;8.60;;;;;;;;;;5061988;28;20430;-58
2022/03/21 14:33:10;;;;;;;13.32;8.70;;;;;;;;;;5062038;28;20220;-59
2022/03/21 14:35:36;;;;;;;10.57;7.65;;;;;;;;;;5061963;28;20374;-59
2022/03/21 14:38:04;;;;;;;19.05;8.93;;;;;;;;;;5061576;28;20235;-59
2022/03/21 14:40:30;;;;;;;16.50;8.43;;;;;;;;;;5062155;28;20238;-58
2022/03/21 14:42:56;;;;;;;16.75;8.68;;;;;;;;;;5062026;28;20225;-60
2022/03/21 14:45:23;;;;;;;20.70;8.65;;;;;;;;;;5061862;28;20550;-58
2022/03/21 14:47:49;;;;;;;11.18;8.30;;;;;;;;;;5061636;28;20204;-58